Time;durP1;ratioP1;P1;durP2;ratioP2;P2;SDS_P1;SDS_P2;PMS_P1;PMS_P2;Temp;Humidity;BMP_temperature;BMP_pressure;BME280_temperature;BME280_humidity;BME280_pressure;Samples;Min_cycle;Max_cycle;Signal;HPM_P1;HPM_P2
2023/07/21 00:03:34;;;;;;;4.00;3.50;;;;;;;17.63;100.00;99921.89;183218;1236;46096;-84
2023/07/21 00:07:36;;;;;;;3.80;3.30;;;;;;;17.60;100.00;99920.10;182757;1236;57881;-84
2023/07/21 00:11:38;;;;;;;2.60;2.40;;;;;;;17.60;100.00;99923.17;183482;1235;46094;-84
2023/07/21 00:15:40;;;;;;;5.20;3.20;;;;;;;17.64;100.00;99921.98;182924;1237;46015;-84
2023/07/21 00:19:44;;;;;;;2.80;2.50;;;;;;;17.66;100.00;99926.23;183202;1233;45988;-83
2023/07/21 00:23:46;;;;;;;3.50;2.10;;;;;;;17.65;100.00;99927.99;182891;1237;46154;-84
2023/07/21 00:27:48;;;;;;;3.40;2.40;;;;;;;17.65;100.00;99924.94;182809;1234;57713;-83
2023/07/21 00:31:50;;;;;;;2.50;2.30;;;;;;;17.66;100.00;99921.39;182977;1235;46082;-84
2023/07/21 00:35:52;;;;;;;2.10;1.90;;;;;;;17.67;100.00;99920.61;182652;1233;46063;-84
2023/07/21 00:39:54;;;;;;;4.00;2.40;;;;;;;17.64;100.00;99918.18;183046;1237;46011;-84
2023/07/21 00:43:55;;;;;;;5.80;3.40;;;;;;;17.58;100.00;99921.14;183088;1235;46071;-84
2023/07/21 00:47:57;;;;;;;4.10;3.70;;;;;;;17.42;100.00;99915.58;182864;1238;57948;-84
2023/07/21 00:51:59;;;;;;;6.70;3.80;;;;;;;17.27;100.00;99918.00;182974;1236;46091;-84
2023/07/21 00:56:02;;;;;;;3.80;3.50;;;;;;;17.16;100.00;99915.73;183042;1234;45954;-84
2023/07/21 01:00:10;;;;;;;3.40;3.20;;;;;;;17.06;100.00;99914.21;182567;1233;46052;-83
2023/07/21 01:04:12;;;;;;;3.80;2.90;;;;;;;17.01;100.00;99909.94;182840;1235;46174;-83
2023/07/21 01:08:14;;;;;;;3.40;3.10;;;;;;;17.07;100.00;99906.92;183259;1235;59754;-83
2023/07/21 01:12:16;;;;;;;4.40;3.00;;;;;;;17.17;100.00;99907.52;183242;1234;46065;-83
2023/07/21 01:16:20;;;;;;;5.10;3.50;;;;;;;17.24;100.00;99905.21;183745;1236;46144;-83
2023/07/21 01:20:24;;;;;;;3.10;2.80;;;;;;;17.26;100.00;99906.48;182511;1238;46369;-83
2023/07/21 01:25:04;;;;;;;5.50;3.40;;;;;;;17.28;100.00;99903.76;182853;1233;45968;-84
2023/07/21 01:29:08;;;;;;;11.50;3.20;;;;;;;17.29;100.00;99906.33;181172;1242;59987;-83
2023/07/21 01:33:11;;;;;;;4.10;3.70;;;;;;;17.22;100.00;99906.08;181345;1245;46195;-84
2023/07/21 01:37:15;;;;;;;5.60;3.60;;;;;;;17.11;100.00;99904.48;181573;1241;46033;-84
2023/07/21 01:41:17;;;;;;;4.30;3.50;;;;;;;17.07;100.00;99903.45;181860;1241;46018;-84
2023/07/21 01:45:19;;;;;;;3.70;3.10;;;;;;;17.04;100.00;99904.55;181968;1241;46122;-83
2023/07/21 01:49:21;;;;;;;4.60;3.80;;;;;;;16.94;100.00;99904.05;181768;1241;57021;-83
2023/07/21 01:53:28;;;;;;;7.40;4.30;;;;;;;16.87;100.00;99904.48;181351;1246;46008;-84
2023/07/21 01:57:35;;;;;;;3.30;3.10;;;;;;;16.81;100.00;99901.10;181534;1241;45960;-84
2023/07/21 02:01:38;;;;;;;3.80;3.50;;;;;;;16.82;100.00;99899.14;181488;1241;46160;-84
2023/07/21 02:05:40;;;;;;;5.50;4.30;;;;;;;16.86;100.00;99896.83;181564;1235;46111;-84
2023/07/21 02:09:43;;;;;;;5.30;4.80;;;;;;;16.90;100.00;99897.75;182601;1233;59340;-84
2023/07/21 02:13:45;;;;;;;4.90;4.40;;;;;;;16.89;100.00;99891.47;182786;1233;46090;-84
2023/07/21 02:17:48;;;;;;;6.40;4.30;;;;;;;16.86;100.00;99895.64;182781;1235;46148;-84
2023/07/21 02:21:50;;;;;;;6.10;3.50;;;;;;;16.75;100.00;99896.33;183130;1233;46077;-84
2023/07/21 02:25:52;;;;;;;4.60;3.60;;;;;;;16.67;100.00;99891.70;182534;1239;46183;-84
2023/07/21 02:29:55;;;;;;;6.30;4.90;;;;;;;16.68;100.00;99899.60;182528;1235;59151;-83
2023/07/21 02:33:56;;;;;;;5.90;3.90;;;;;;;16.67;100.00;99897.96;183034;1234;46050;-83
2023/07/21 02:38:01;;;;;;;4.90;3.90;;;;;;;16.64;100.00;99901.14;182961;1236;45994;-85
2023/07/21 02:42:03;;;;;;;7.80;4.90;;;;;;;16.62;100.00;99901.89;182876;1235;43828;-83
2023/07/21 02:46:05;;;;;;;8.30;4.40;;;;;;;16.49;100.00;99902.35;182832;1236;45949;-83
2023/07/21 02:50:09;;;;;;;7.00;5.30;;;;;;;16.27;100.00;99905.52;182635;1234;59862;-84
2023/07/21 02:54:11;;;;;;;6.80;4.80;;;;;;;16.13;100.00;99907.57;182505;1235;46028;-84
2023/07/21 02:58:15;;;;;;;8.60;4.60;;;;;;;16.06;100.00;99908.19;183044;1237;46525;-84
2023/07/21 03:02:17;;;;;;;10.80;5.00;;;;;;;15.99;100.00;99910.02;182719;1234;46106;-83
2023/07/21 03:06:20;;;;;;;8.10;6.00;;;;;;;15.90;100.00;99914.04;182628;1234;46020;-83
2023/07/21 03:10:22;;;;;;;7.20;4.80;;;;;;;15.92;100.00;99913.14;182510;1235;59340;-83
2023/07/21 03:14:24;;;;;;;8.90;6.30;;;;;;;15.93;100.00;99916.06;182961;1236;45993;-83
2023/07/21 03:18:26;;;;;;;9.00;7.20;;;;;;;15.96;100.00;99919.45;182435;1235;46065;-83
2023/07/21 03:22:28;;;;;;;14.30;11.80;;;;;;;15.99;100.00;99916.77;183026;1235;46062;-83
2023/07/21 03:26:29;;;;;;;18.90;17.10;;;;;;;15.80;100.00;99913.52;182871;1234;46763;-82
2023/07/21 03:30:32;;;;;;;18.00;16.20;;;;;;;15.70;100.00;99915.77;182453;1234;58089;-83
2023/07/21 03:34:35;;;;;;;12.20;10.80;;;;;;;15.76;100.00;99914.48;182415;1237;46143;-82
2023/07/21 03:38:37;;;;;;;9.00;7.50;;;;;;;15.84;100.00;99918.61;182690;1237;46022;-82
2023/07/21 03:42:38;;;;;;;7.30;6.60;;;;;;;15.97;100.00;99922.76;183983;1233;46086;-82
2023/07/21 03:46:41;;;;;;;7.30;6.50;;;;;;;16.08;100.00;99921.73;182833;1235;46052;-82
2023/07/21 03:50:43;;;;;;;12.10;8.00;;;;;;;16.18;100.00;99922.75;183026;1236;59496;-83
2023/07/21 03:54:45;;;;;;;11.80;6.50;;;;;;;16.28;100.00;99918.80;182397;1236;46062;-83
2023/07/21 03:58:47;;;;;;;7.60;5.50;;;;;;;16.39;100.00;99922.55;183297;1237;46085;-82
2023/07/21 04:02:49;;;;;;;6.50;6.00;;;;;;;16.47;100.00;99918.63;182522;1237;46372;-83
2023/07/21 04:06:51;;;;;;;9.80;6.80;;;;;;;16.57;100.00;99919.13;183052;1234;45923;-83
2023/07/21 04:10:53;;;;;;;7.30;5.40;;;;;;;16.70;100.00;99921.80;182754;1233;60133;-84
2023/07/21 04:14:56;;;;;;;6.10;5.50;;;;;;;16.83;100.00;99922.10;182503;1234;46016;-84
2023/07/21 04:18:59;;;;;;;8.00;5.90;;;;;;;16.96;100.00;99925.14;183356;1236;46049;-85
2023/07/21 04:23:00;;;;;;;5.40;4.60;;;;;;;17.17;100.00;99924.25;183296;1233;45959;-83
2023/07/21 04:27:03;;;;;;;11.70;6.20;;;;;;;17.67;100.00;99921.21;182671;1235;46151;-84
2023/07/21 04:31:05;;;;;;;6.70;6.10;;;;;;;18.71;100.00;99915.77;183053;1234;60707;-84
2023/07/21 04:35:10;;;;;;;9.90;5.80;;;;;;;19.81;96.28;99915.35;182814;1235;46143;-85
2023/07/21 04:39:12;;;;;;;6.40;5.20;;;;;;;20.79;95.75;99907.69;182616;1235;46029;-85
2023/07/21 04:43:16;;;;;;;6.20;5.00;;;;;;;21.83;90.94;99905.84;182699;1235;46139;-85
2023/07/21 04:47:18;;;;;;;10.10;5.50;;;;;;;22.52;81.88;99903.92;182531;1234;46078;-85
2023/07/21 04:51:21;;;;;;;7.00;4.90;;;;;;;22.78;79.10;99905.29;182641;1234;59698;-86
2023/07/21 04:55:23;;;;;;;5.60;4.00;;;;;;;23.11;76.90;99904.50;182649;1237;46070;-86
2023/07/21 04:59:25;;;;;;;5.20;3.90;;;;;;;23.55;75.56;99903.16;182559;1237;46132;-85
2023/07/21 05:03:30;;;;;;;6.90;4.50;;;;;;;24.14;72.85;99900.59;182843;1236;46174;-85
2023/07/21 05:07:32;;;;;;;10.70;4.50;;;;;;;24.72;69.69;99889.98;183416;1234;46013;-84
2023/07/21 05:11:34;;;;;;;5.00;3.40;;;;;;;24.71;68.35;99892.45;182968;1236;57985;-85
2023/07/21 05:15:36;;;;;;;5.40;4.10;;;;;;;24.56;68.42;99896.58;183026;1233;45928;-84
2023/07/21 05:19:38;;;;;;;4.20;3.60;;;;;;;24.55;68.04;99900.06;182625;1233;46055;-84
2023/07/21 05:23:41;;;;;;;5.00;3.30;;;;;;;24.54;68.98;99901.23;182702;1237;46177;-84
2023/07/21 05:27:47;;;;;;;3.90;3.50;;;;;;;24.63;68.61;99887.61;182774;1232;46062;-84
2023/07/21 05:31:49;;;;;;;3.20;2.70;;;;;;;24.89;66.75;99887.15;182496;1236;59159;-84
2023/07/21 05:35:51;;;;;;;3.00;2.10;;;;;;;25.24;66.24;99885.67;182975;1234;46093;-84
2023/07/21 05:39:53;;;;;;;3.60;1.90;;;;;;;25.57;62.48;99882.64;183320;1234;46012;-85
2023/07/21 05:43:54;;;;;;;4.40;2.10;;;;;;;25.54;58.58;99879.23;182768;1236;44683;-85
2023/07/21 05:47:56;;;;;;;7.60;4.40;;;;;;;25.62;59.34;99883.04;182737;1233;46150;-84
2023/07/21 05:51:58;;;;;;;4.50;2.60;;;;;;;25.94;58.20;99888.02;182799;1234;60452;-85
2023/07/21 05:56:00;;;;;;;27.70;24.30;;;;;;;25.94;57.35;99885.24;182630;1235;46107;-85
2023/07/21 06:00:04;;;;;;;1.80;1.50;;;;;;;26.38;55.99;99884.34;182687;1237;45947;-85
2023/07/21 06:04:07;;;;;;;1.80;1.20;;;;;;;27.06;53.61;99878.30;182817;1234;44701;-85
2023/07/21 06:08:09;;;;;;;3.30;2.40;;;;;;;27.59;52.64;99880.46;182967;1235;46774;-85
2023/07/21 06:12:10;;;;;;;1.20;1.10;;;;;;;28.09;52.20;99885.64;182970;1236;58209;-85
2023/07/21 06:16:12;;;;;;;2.00;1.20;;;;;;;28.18;51.42;99883.30;183068;1233;46104;-85
2023/07/21 06:20:14;;;;;;;1.30;1.20;;;;;;;27.84;51.69;99887.79;183665;1236;46674;-85
2023/07/21 06:24:16;;;;;;;2.70;1.80;;;;;;;27.56;51.88;99881.09;183723;1236;46050;-85
2023/07/21 06:28:19;;;;;;;2.00;1.60;;;;;;;27.69;51.79;99878.61;183585;1234;44114;-87
2023/07/21 06:32:21;;;;;;;3.80;3.20;;;;;;;27.60;52.40;99873.62;183546;1234;58110;-84
2023/07/21 06:36:25;;;;;;;4.20;1.10;;;;;;;27.48;52.61;99867.63;183267;1237;44721;-84
2023/07/21 06:40:27;;;;;;;2.10;1.00;;;;;;;27.32;53.28;99868.23;183498;1235;46118;-83
2023/07/21 06:44:31;;;;;;;1.70;1.30;;;;;;;27.09;54.18;99861.99;182949;1233;45859;-83
2023/07/21 06:48:33;;;;;;;1.90;1.80;;;;;;;27.04;53.28;99858.69;183092;1233;46071;-83
2023/07/21 06:52:35;;;;;;;8.20;2.10;;;;;;;26.92;52.66;99858.64;182606;1237;239847;-84
2023/07/21 06:56:37;;;;;;;2.80;0.80;;;;;;;26.97;52.46;99857.64;182939;1233;46047;-85
2023/07/21 07:00:39;;;;;;;1.50;1.40;;;;;;;27.05;52.09;99853.62;183185;1233;45928;-85
2023/07/21 07:04:41;;;;;;;2.80;0.90;;;;;;;27.12;52.18;99850.25;183415;1234;45904;-84
2023/07/21 07:08:43;;;;;;;1.00;0.70;;;;;;;26.89;53.63;99846.89;182929;1232;45988;-85
2023/07/21 07:12:45;;;;;;;1.40;0.70;;;;;;;26.82;53.52;99847.67;182907;1233;57313;-85
2023/07/21 07:16:47;;;;;;;2.80;1.90;;;;;;;27.06;54.24;99847.65;183377;1233;45994;-85
2023/07/21 07:20:51;;;;;;;3.30;1.20;;;;;;;27.10;53.63;99842.57;183774;1234;46039;-86
2023/07/21 07:24:53;;;;;;;3.80;2.10;;;;;;;27.25;51.79;99838.80;183036;1235;46100;-85
2023/07/21 07:28:57;;;;;;;11.20;7.70;;;;;;;27.21;52.91;99837.96;183358;1234;44651;-85
2023/07/21 07:32:59;;;;;;;1.60;1.30;;;;;;;27.29;52.62;99835.14;183644;1235;59413;-85
2023/07/21 07:37:00;;;;;;;7.10;2.00;;;;;;;27.56;53.31;99831.54;183162;1234;46161;-85
2023/07/21 07:41:05;;;;;;;2.70;1.50;;;;;;;27.68;51.48;99829.60;184451;1234;44904;-85
2023/07/21 07:45:08;;;;;;;2.60;0.80;;;;;;;27.64;52.63;99829.86;183227;1237;45806;-85
2023/07/21 07:49:14;;;;;;;2.30;0.90;;;;;;;27.65;52.30;99822.45;183250;1236;46091;-85
2023/07/21 07:53:16;;;;;;;;;;;;;;;27.79;51.61;99824.18;183337;1236;59378;-85
2023/07/21 07:57:20;;;;;;;0.80;0.50;;;;;;;27.87;51.81;99822.91;183880;1234;46097;-85
2023/07/21 08:01:22;;;;;;;1.10;0.40;;;;;;;27.97;49.71;99816.26;182869;1235;46080;-85
2023/07/21 08:05:25;;;;;;;1.50;0.30;;;;;;;27.97;49.33;99813.86;183175;1235;45916;-85
2023/07/21 08:09:27;;;;;;;0.30;0.30;;;;;;;28.16;50.15;99813.25;183479;1234;46052;-84
2023/07/21 08:13:29;;;;;;;0.40;0.40;;;;;;;28.23;48.59;99813.71;183159;1236;59332;-84
2023/07/21 08:17:31;;;;;;;0.50;0.40;;;;;;;28.33;49.12;99807.38;183209;1233;46036;-85
2023/07/21 08:21:33;;;;;;;0.60;0.50;;;;;;;28.43;49.62;99804.32;183904;1233;45963;-84
2023/07/21 08:25:36;;;;;;;0.80;0.30;;;;;;;28.53;49.22;99800.21;183573;1237;46009;-84
2023/07/21 08:29:38;;;;;;;1.50;0.70;;;;;;;28.61;48.58;99793.67;183425;1232;46072;-84
2023/07/21 08:33:40;;;;;;;1.00;0.70;;;;;;;28.68;48.96;99788.66;183245;1235;59533;-85
2023/07/21 08:37:42;;;;;;;0.80;0.40;;;;;;;28.96;48.96;99778.04;183376;1233;45979;-83
2023/07/21 08:41:49;;;;;;;0.90;0.50;;;;;;;28.88;47.15;99780.08;183202;1232;44625;-84
2023/07/21 08:45:54;;;;;;;1.10;0.20;;;;;;;28.53;47.45;99779.59;183080;1234;46062;-84
2023/07/21 08:49:56;;;;;;;1.40;0.70;;;;;;;28.29;46.99;99773.32;183177;1238;46892;-85
2023/07/21 08:53:57;;;;;;;0.90;0.30;;;;;;;28.19;47.64;99775.45;183115;1232;57871;-84
2023/07/21 08:58:00;;;;;;;2.30;1.10;;;;;;;28.12;46.99;99777.68;183187;1232;46052;-85
2023/07/21 09:02:02;;;;;;;1.80;0.40;;;;;;;27.99;47.16;99776.29;184165;1235;46042;-85
2023/07/21 09:06:04;;;;;;;1.50;0.80;;;;;;;27.98;49.53;99780.27;182835;1234;46745;-85
2023/07/21 09:10:07;;;;;;;1.50;0.40;;;;;;;27.94;47.73;99770.59;182983;1233;44782;-86
2023/07/21 09:14:09;;;;;;;1.50;1.00;;;;;;;27.69;48.22;99768.90;183080;1232;57994;-86
2023/07/21 09:18:11;;;;;;;2.60;0.60;;;;;;;27.27;47.04;99767.61;182914;1237;46123;-86
2023/07/21 09:22:13;;;;;;;0.60;0.50;;;;;;;27.03;47.75;99765.82;183053;1234;46282;-86
2023/07/21 09:26:24;;;;;;;1.00;0.90;;;;;;;26.97;48.22;99766.44;184225;1233;45952;-83
2023/07/21 09:30:27;;;;;;;1.10;0.50;;;;;;;26.92;49.12;99764.23;185389;1236;43961;-83
2023/07/21 09:34:32;;;;;;;23.90;0.60;;;;;;;27.05;47.96;99754.83;186290;1234;57887;-83
2023/07/21 09:38:36;;;;;;;1.70;0.90;;;;;;;27.25;48.08;99750.06;185775;1233;44642;-84
2023/07/21 09:42:42;;;;;;;2.60;0.50;;;;;;;27.52;48.23;99744.08;185487;1234;45969;-84
2023/07/21 09:46:46;;;;;;;0.50;0.20;;;;;;;27.91;46.38;99736.38;185601;1233;44543;-84
2023/07/21 09:50:49;;;;;;;5.40;0.90;;;;;;;28.16;45.03;99734.17;185279;1233;44803;-84
2023/07/21 09:55:07;;;;;;;1.00;0.60;;;;;;;28.37;46.12;99732.71;185412;1233;59116;-84
2023/07/21 09:59:10;;;;;;;0.60;0.50;;;;;;;28.61;46.10;99734.20;185353;1233;44585;-84
2023/07/21 10:03:14;;;;;;;0.40;0.20;;;;;;;28.64;43.92;99725.52;185623;1233;43852;-84
2023/07/21 10:07:18;;;;;;;1.00;0.40;;;;;;;28.26;42.39;99719.85;185629;1233;46103;-84
2023/07/21 10:11:22;;;;;;;2.50;0.30;;;;;;;28.14;43.84;99722.21;185373;1233;46031;-84
2023/07/21 10:15:31;;;;;;;1.20;0.70;;;;;;;28.15;44.45;99723.55;185524;1232;58202;-84
2023/07/21 10:19:44;;;;;;;0.30;0.20;;;;;;;28.33;45.92;99720.92;185423;1234;43335;-84
2023/07/21 10:23:51;;;;;;;0.90;0.90;;;;;;;28.38;44.23;99718.60;185691;1234;44558;-83
2023/07/21 10:28:03;;;;;;;1.10;0.40;;;;;;;28.39;42.73;99717.63;185495;1235;44475;-84
2023/07/21 10:32:06;;;;;;;0.50;0.30;;;;;;;28.31;44.20;99716.36;185495;1233;45953;-84
2023/07/21 10:36:14;;;;;;;1.10;0.60;;;;;;;28.17;42.61;99711.77;185511;1234;56879;-84
2023/07/21 10:40:17;;;;;;;1.10;0.90;;;;;;;28.05;43.71;99704.42;185500;1233;44004;-83
2023/07/21 10:44:22;;;;;;;9.70;2.00;;;;;;;28.22;46.29;99705.92;185420;1235;44873;-84
2023/07/21 10:48:26;;;;;;;1.10;0.50;;;;;;;28.35;45.41;99701.19;185507;1234;44653;-83
2023/07/21 10:52:28;;;;;;;0.80;0.70;;;;;;;28.37;44.82;99692.45;185574;1234;43917;-84
2023/07/21 10:56:34;;;;;;;0.90;0.50;;;;;;;28.36;43.19;99694.20;185244;1234;58696;-84
2023/07/21 11:01:03;;;;;;;2.40;0.40;;;;;;;28.57;42.31;99688.25;185542;1234;46120;-84
2023/07/21 11:05:05;;;;;;;1.50;0.40;;;;;;;28.74;42.76;99685.16;184636;1232;45973;-83
2023/07/21 11:09:11;;;;;;;1.20;0.60;;;;;;;28.76;42.13;99680.42;185030;1232;45873;-84
2023/07/21 11:13:14;;;;;;;0.40;0.30;;;;;;;28.83;42.31;99672.84;185432;1233;43721;-84
2023/07/21 11:17:16;;;;;;;2.00;0.60;;;;;;;28.79;41.08;99665.91;185343;1233;58134;-84
2023/07/21 11:21:18;;;;;;;0.90;0.70;;;;;;;28.70;40.88;99654.16;185652;1234;46011;-84
2023/07/21 11:25:20;;;;;;;2.90;0.80;;;;;;;28.66;41.62;99655.88;185370;1234;45883;-84
2023/07/21 11:29:25;;;;;;;1.40;0.50;;;;;;;28.39;42.42;99656.00;185502;1233;43477;-84
2023/07/21 11:33:40;;;;;;;1.80;0.30;;;;;;;28.42;44.22;99651.76;185371;1234;45974;-84
2023/07/21 11:37:44;;;;;;;0.30;0.30;;;;;;;28.46;42.97;99646.26;185668;1233;57105;-84
2023/07/21 11:41:54;;;;;;;0.90;0.40;;;;;;;28.35;43.01;99643.38;185594;1235;44593;-84
2023/07/21 11:45:57;;;;;;;0.70;0.60;;;;;;;28.07;43.16;99637.14;185098;1234;45967;-84
2023/07/21 11:49:59;;;;;;;0.60;0.60;;;;;;;27.77;44.62;99638.40;185225;1233;45960;-84
2023/07/21 11:54:01;;;;;;;5.90;1.80;;;;;;;27.46;44.98;99641.20;185328;1232;45910;-83
2023/07/21 11:58:03;;;;;;;1.20;0.60;;;;;;;27.34;46.21;99636.40;185346;1234;58067;-83
2023/07/21 12:02:07;;;;;;;1.50;0.30;;;;;;;27.35;44.47;99628.93;185241;1234;43630;-85
2023/07/21 12:06:10;;;;;;;3.70;0.40;;;;;;;27.31;43.97;99621.55;185135;1234;45977;-85
2023/07/21 12:10:12;;;;;;;0.50;0.50;;;;;;;27.30;45.39;99618.00;185590;1233;44543;-83
2023/07/21 12:14:14;;;;;;;1.40;0.50;;;;;;;27.39;43.89;99608.82;185901;1233;45883;-83
2023/07/21 12:18:17;;;;;;;0.60;0.60;;;;;;;27.50;43.05;99604.94;185400;1233;58349;-83
2023/07/21 12:22:19;;;;;;;1.20;0.70;;;;;;;27.70;43.07;99605.92;185325;1233;45967;-84
2023/07/21 12:26:22;;;;;;;2.10;0.40;;;;;;;27.90;43.04;99600.73;185361;1234;46197;-82
2023/07/21 12:30:27;;;;;;;0.90;0.50;;;;;;;28.06;42.92;99592.18;185658;1234;44045;-83
2023/07/21 12:34:30;;;;;;;1.10;1.00;;;;;;;28.08;43.87;99587.79;185799;1232;44751;-83
2023/07/21 12:38:32;;;;;;;0.80;0.70;;;;;;;28.26;43.09;99580.14;185787;1233;59952;-83
2023/07/21 12:42:34;;;;;;;0.60;0.40;;;;;;;28.48;42.64;99569.86;186363;1234;44687;-83
2023/07/21 12:46:37;;;;;;;0.70;0.50;;;;;;;28.63;42.51;99568.21;185844;1233;44475;-83
2023/07/21 12:50:39;;;;;;;1.50;0.70;;;;;;;28.78;43.75;99572.36;185846;1233;45829;-83
2023/07/21 12:54:42;;;;;;;3.00;0.50;;;;;;;28.77;42.26;99568.04;185600;1233;44554;-83
2023/07/21 12:58:47;;;;;;;1.70;0.70;;;;;;;28.78;42.90;99574.21;185596;1232;59246;-83
2023/07/21 13:02:50;;;;;;;1.40;0.70;;;;;;;28.76;45.31;99571.26;185630;1233;43502;-82
2023/07/21 13:06:53;;;;;;;1.00;0.50;;;;;;;28.57;43.41;99567.52;185794;1234;46014;-83
2023/07/21 13:10:56;;;;;;;0.40;0.30;;;;;;;28.45;43.59;99562.02;185757;1233;43792;-83
2023/07/21 13:14:58;;;;;;;3.10;0.50;;;;;;;28.53;45.81;99564.32;185622;1233;44039;-84
2023/07/21 13:19:00;;;;;;;1.20;0.70;;;;;;;28.60;44.96;99560.69;185615;1234;57971;-83
2023/07/21 13:23:02;;;;;;;1.10;0.60;;;;;;;28.73;45.06;99555.80;185657;1234;44565;-83
2023/07/21 13:27:04;;;;;;;1.70;1.20;;;;;;;28.74;43.57;99554.71;185576;1234;45928;-84
2023/07/21 13:31:07;;;;;;;1.80;0.40;;;;;;;28.71;42.77;99558.36;185709;1234;45915;-83
2023/07/21 13:35:09;;;;;;;1.10;0.80;;;;;;;28.76;43.05;99553.73;185836;1232;43934;-84
2023/07/21 13:39:11;;;;;;;0.70;0.60;;;;;;;28.74;43.31;99551.52;185540;1232;59422;-83
2023/07/21 13:43:13;;;;;;;3.70;1.20;;;;;;;28.49;44.91;99550.23;185544;1234;45994;-83
2023/07/21 13:47:16;;;;;;;9.30;1.40;;;;;;;28.29;44.19;99559.48;185446;1233;43740;-83
2023/07/21 13:51:19;;;;;;;12.30;0.90;;;;;;;28.24;46.95;99556.45;185409;1233;44392;-83
2023/07/21 13:55:21;;;;;;;1.50;1.20;;;;;;;28.23;45.11;99551.19;185653;1232;43274;-83
2023/07/21 13:59:24;;;;;;;1.10;0.50;;;;;;;28.07;44.69;99544.75;185617;1233;59345;-83
2023/07/21 14:03:27;;;;;;;3.00;1.00;;;;;;;28.05;44.58;99545.77;185650;1233;45966;-84
2023/07/21 14:07:29;;;;;;;1.20;0.80;;;;;;;28.09;44.49;99537.55;185519;1234;45915;-83
2023/07/21 14:11:32;;;;;;;0.80;0.50;;;;;;;28.10;44.37;99531.59;185456;1235;46003;-82
2023/07/21 14:15:35;;;;;;;1.20;0.40;;;;;;;27.93;44.73;99523.54;185217;1234;43950;-83
2023/07/21 14:19:37;;;;;;;1.10;0.50;;;;;;;27.77;44.51;99521.15;185443;1233;57301;-82
2023/07/21 14:23:41;;;;;;;1.40;0.50;;;;;;;27.65;44.58;99515.08;185671;1233;45902;-83
2023/07/21 14:27:43;;;;;;;1.70;0.50;;;;;;;27.65;44.91;99511.86;185246;1234;45958;-84
2023/07/21 14:31:48;;;;;;;1.50;0.90;;;;;;;27.63;44.77;99507.69;185528;1233;44693;-84
2023/07/21 14:35:50;;;;;;;2.60;0.50;;;;;;;27.52;44.88;99508.12;185386;1233;43592;-84
2023/07/21 14:39:56;;;;;;;3.70;1.20;;;;;;;27.33;45.17;99500.15;185249;1232;57992;-84
2023/07/21 14:43:58;;;;;;;0.80;0.60;;;;;;;27.17;45.61;99502.80;185462;1233;45832;-83
2023/07/21 14:48:00;;;;;;;0.80;0.60;;;;;;;26.94;45.73;99503.42;185242;1234;46011;-84
2023/07/21 14:52:03;;;;;;;0.40;0.30;;;;;;;26.75;46.08;99503.68;185015;1233;46104;-84
2023/07/21 14:56:05;;;;;;;3.00;0.90;;;;;;;26.62;48.16;99499.44;185201;1233;43958;-84
2023/07/21 15:00:20;;;;;;;1.00;0.80;;;;;;;26.44;48.95;99506.42;185010;1234;58369;-84
2023/07/21 15:04:23;;;;;;;1.00;0.80;;;;;;;26.34;48.25;99504.80;185157;1235;43869;-84
2023/07/21 15:08:26;;;;;;;1.20;0.70;;;;;;;26.24;47.83;99498.77;184989;1232;46106;-84
2023/07/21 15:12:28;;;;;;;1.40;0.50;;;;;;;26.22;47.67;99498.19;185092;1234;46033;-84
2023/07/21 15:16:31;;;;;;;6.10;1.50;;;;;;;26.20;48.13;99496.81;185114;1234;44567;-84
2023/07/21 15:20:33;;;;;;;4.20;1.00;;;;;;;26.15;48.55;99489.45;184924;1233;57987;-84
2023/07/21 15:24:35;;;;;;;2.90;1.00;;;;;;;26.05;48.99;99482.52;184930;1233;46042;-84
2023/07/21 15:28:37;;;;;;;0.80;0.60;;;;;;;25.99;49.94;99483.70;185203;1234;45984;-83
2023/07/21 15:32:40;;;;;;;1.30;0.60;;;;;;;25.90;52.22;99491.28;185120;1234;45901;-83
2023/07/21 15:36:42;;;;;;;2.00;1.30;;;;;;;25.74;52.38;99486.78;185309;1234;43411;-83
2023/07/21 15:40:44;;;;;;;1.50;1.10;;;;;;;25.60;52.68;99487.30;185636;1234;57526;-83
2023/07/21 15:44:46;;;;;;;2.90;0.70;;;;;;;25.47;53.89;99495.48;185280;1233;44572;-83
2023/07/21 15:48:52;;;;;;;6.80;1.90;;;;;;;25.32;55.72;99502.38;185317;1233;44555;-83
2023/07/21 15:52:54;;;;;;;8.90;1.30;;;;;;;25.10;56.89;99504.35;185196;1233;44535;-84
2023/07/21 15:56:56;;;;;;;3.70;1.40;;;;;;;24.91;58.33;99501.52;185178;1235;45145;-83
2023/07/21 16:01:02;;;;;;;4.00;1.30;;;;;;;24.76;59.54;99503.16;185523;1234;59646;-83
2023/07/21 16:05:05;;;;;;;52.30;10.90;;;;;;;24.66;60.12;99495.46;185113;1234;46039;-83
2023/07/21 16:09:08;;;;;;;5.70;1.80;;;;;;;24.63;59.99;99486.27;185043;1237;46018;-83
2023/07/21 16:13:10;;;;;;;2.40;1.70;;;;;;;24.63;60.34;99485.88;185091;1234;46049;-83
2023/07/21 16:17:13;;;;;;;4.80;2.40;;;;;;;24.48;62.97;99491.54;185050;1234;43970;-83
2023/07/21 16:21:17;;;;;;;1.60;0.90;;;;;;;24.14;65.55;99493.84;185102;1237;60881;-83
2023/07/21 16:25:19;;;;;;;3.60;1.10;;;;;;;23.83;66.44;99498.30;185065;1235;44029;-83
2023/07/21 16:29:21;;;;;;;3.10;1.20;;;;;;;23.74;66.55;99486.55;185450;1236;44134;-83
2023/07/21 16:33:23;;;;;;;1.80;1.10;;;;;;;23.67;65.71;99485.25;184918;1232;46011;-83
2023/07/21 16:37:25;;;;;;;2.20;1.60;;;;;;;23.61;66.46;99492.86;184790;1234;45918;-83
2023/07/21 16:41:27;;;;;;;9.50;1.90;;;;;;;23.55;66.87;99492.59;184900;1234;58125;-83
2023/07/21 16:45:29;;;;;;;4.40;1.60;;;;;;;23.45;66.75;99496.63;184792;1236;46099;-83
2023/07/21 16:49:31;;;;;;;2.10;1.60;;;;;;;23.35;65.81;99497.77;184711;1234;44588;-83
2023/07/21 16:53:34;;;;;;;3.00;1.50;;;;;;;23.22;67.16;99491.70;185070;1235;45927;-83
2023/07/21 16:57:36;;;;;;;1.50;1.30;;;;;;;23.11;67.96;99488.40;184867;1237;44718;-83
2023/07/21 17:01:39;;;;;;;7.20;3.00;;;;;;;23.03;68.84;99496.48;184724;1234;59547;-83
2023/07/21 17:05:42;;;;;;;3.10;1.90;;;;;;;22.93;71.16;99497.81;184878;1235;45962;-83
2023/07/21 17:09:44;;;;;;;3.20;2.10;;;;;;;22.89;71.03;99498.02;185215;1235;43743;-83
2023/07/21 17:13:45;;;;;;;4.70;2.00;;;;;;;22.88;70.71;99501.57;184968;1235;44097;-83
2023/07/21 17:17:47;;;;;;;3.10;1.70;;;;;;;22.88;71.00;99497.77;184865;1237;45976;-83
2023/07/21 17:21:50;;;;;;;3.00;2.20;;;;;;;22.88;70.37;99497.02;184631;1235;60007;-83
2023/07/21 17:25:52;;;;;;;3.80;1.70;;;;;;;22.88;68.30;99497.45;184836;1235;46017;-83
2023/07/21 17:29:55;;;;;;;2.10;1.10;;;;;;;22.85;67.53;99490.15;184712;1235;45941;-83
2023/07/21 17:33:57;;;;;;;2.60;1.10;;;;;;;22.82;68.43;99489.59;184917;1233;47707;-83
2023/07/21 17:37:59;;;;;;;2.10;1.20;;;;;;;22.80;69.07;99489.63;184860;1234;44667;-83
2023/07/21 17:42:00;;;;;;;4.70;1.20;;;;;;;22.76;69.02;99492.58;185067;1236;59538;-83
2023/07/21 17:46:03;;;;;;;2.00;0.90;;;;;;;22.71;69.83;99485.46;184454;1236;46080;-83
2023/07/21 17:50:09;;;;;;;1.80;1.00;;;;;;;22.65;69.76;99490.16;184629;1235;45852;-83
2023/07/21 17:54:11;;;;;;;1.10;0.90;;;;;;;22.59;70.12;99493.35;184726;1235;45958;-82
2023/07/21 17:58:15;;;;;;;2.20;2.00;;;;;;;22.49;70.81;99486.27;184704;1234;46087;-83
2023/07/21 18:02:18;;;;;;;9.70;2.50;;;;;;;22.43;73.54;99485.84;184367;1232;57741;-83
2023/07/21 18:06:20;;;;;;;3.90;1.60;;;;;;;22.33;75.19;99488.58;185007;1235;44336;-83
2023/07/21 18:10:22;;;;;;;3.60;2.40;;;;;;;22.23;75.34;99498.23;184499;1236;46539;-83
2023/07/21 18:14:23;;;;;;;3.90;2.20;;;;;;;22.13;76.27;99503.79;184711;1235;45799;-83
2023/07/21 18:18:26;;;;;;;2.80;2.30;;;;;;;22.05;77.19;99505.36;184436;1235;44928;-83
2023/07/21 18:22:28;;;;;;;4.10;1.90;;;;;;;21.98;78.83;99502.54;184412;1236;59560;-83
2023/07/21 18:26:33;;;;;;;2.70;1.90;;;;;;;21.95;79.35;99501.44;184746;1235;43948;-82
2023/07/21 18:30:34;;;;;;;5.00;1.70;;;;;;;21.92;80.36;99501.46;184764;1233;45991;-83
2023/07/21 18:34:36;;;;;;;3.20;2.40;;;;;;;21.90;81.27;99502.47;184636;1235;46068;-83
2023/07/21 18:38:42;;;;;;;9.10;3.80;;;;;;;21.88;81.71;99498.36;184841;1237;45940;-83
2023/07/21 18:42:50;;;;;;;;;;;;;;;21.87;81.72;99495.29;184747;1232;57894;-83
2023/07/21 18:46:53;;;;;;;2.90;1.90;;;;;;;21.77;81.58;99503.67;184591;1235;45838;-83